You are not logged in, Click here to log in
勞德岱堡-好萊塢國際機場FLL / KFLL 美國佛羅里達州
ICAO: KFLL Country: 美國佛羅里達州
Latitude: 26.0726 Longitude: -80.1527
Total Arrivals: 4 Total Departures: 4
Latest Arrival: NK101 (TNCM-KFLL)Jason. Li Latest Departure: DL8895 (KFLL-KMIA)ALAN. LIU
Scenery:
METAR : KFLL 080153Z 35004KT 10SM FEW043 FEW130 20/14 A3013 RMK AO2 SLP203 T02000144 $

勞德岱堡-好萊塢國際機場FLL